Погода Славгущина неделю

Тверская область, Россия

25 - 31 мая
  • 25мая
    Сегодня
    +10°
    +25°
    Ясно и безоблачно
    ВремяПогодаТемператураВлажностьДавлениеВетер, м/сВероятность осадков
    00:00Ясно и безоблачно+11°C53 %761 мм3.3 м/с2 %
    03:00Ясно и безоблачно+9°C57 %761 мм3.2 м/с2 %
    06:00Ясно и безоблачно+12°C55 %761 мм3.4 м/с2 %
    09:00Ясно и безоблачно+20°C42 %761 мм3.4 м/с2 %
    12:00Ясно и безоблачно+23°C30 %760 мм4.3 м/с2 %
    15:00Ясно и безоблачно+24°C30 %758 мм4.3 м/с2 %
    18:00Ясно и безоблачно+24°C34 %757 мм4.1 м/с2 %
    21:00Ясно и безоблачно+19°C44 %757 мм3.8 м/с2 %
  • 26мая
    Воскресенье
    +5°
    +21°
    Облачно с прояснениями
    ВремяПогодаТемператураВлажностьДавлениеВетер, м/сВероятность осадков
    00:00Ясно и безоблачно+14°C55 %757 мм2.5 м/с2 %
    03:00Ясно и безоблачно+10°C76 %757 мм1.6 м/с2 %
    06:00Облачно с прояснениями+13°C88 %758 мм2.2 м/с18 %
    09:00Облачно с прояснениями+18°C73 %759 мм3.6 м/с38 %
    12:00Небольшая облачность+20°C37 %759 мм4.0 м/с25 %
    15:00Облачно с прояснениями+21°C33 %759 мм3.5 м/с15 %
    18:00Небольшая облачность+20°C35 %759 мм3.6 м/с4 %
    21:00Ясно и безоблачно+14°C45 %760 мм2.8 м/с2 %
  • 27мая
    Понедельник
    +8°
    +23°
    Ясно и безоблачно
    ВремяПогодаТемператураВлажностьДавлениеВетер, м/сВероятность осадков
    00:00Ясно и безоблачно+8°C53 %760 мм2.6 м/с2 %
    03:00Ясно и безоблачно+6°C65 %761 мм2.5 м/с2 %
    06:00Ясно и безоблачно+9°C64 %762 мм2.3 м/с2 %
    09:00Ясно и безоблачно+18°C41 %762 мм2.5 м/с2 %
    12:00Ясно и безоблачно+21°C34 %761 мм2.0 м/с2 %
    15:00Ясно и безоблачно+22°C31 %761 мм1.7 м/с2 %
    18:00Ясно и безоблачно+22°C32 %759 мм1.7 м/с2 %
    21:00Ясно и безоблачно+16°C49 %759 мм2.3 м/с2 %
  • 28мая
    Вторник
    +9°
    +26°
    Ясно и безоблачно
    ВремяПогодаТемператураВлажностьДавлениеВетер, м/сВероятность осадков
    00:00Ясно и безоблачно+10°C58 %758 мм2.2 м/с2 %
    03:00Ясно и безоблачно+9°C57 %758 мм2.3 м/с2 %
    06:00Ясно и безоблачно+12°C62 %758 мм1.9 м/с2 %
    09:00Ясно и безоблачно+22°C48 %758 мм1.4 м/с2 %
    12:00Ясно и безоблачно+25°C35 %757 мм1.0 м/с3 %
    15:00Ясно и безоблачно+25°C34 %756 мм0.3 м/с5 %
    18:00Ясно и безоблачно+25°C34 %755 мм2.4 м/с8 %
    21:00Ясно и безоблачно+19°C46 %754 мм3.1 м/с2 %
  • 29мая
    Среда
    +11°
    +28°
    Практически безоблачно
    ВремяПогодаТемператураВлажностьДавлениеВетер, м/сВероятность осадков
    00:00Ясно и безоблачно+13°C57 %754 мм2.1 м/с2 %
    03:00Ясно и безоблачно+10°C73 %754 мм2.0 м/с2 %
    06:00Ясно и безоблачно+14°C71 %753 мм1.4 м/с2 %
    09:00Ясно и безоблачно+24°C47 %753 мм0.6 м/с4 %
    12:00Практически безоблачно+26°C34 %753 мм0.8 м/с9 %
    15:00Практически безоблачно+27°C34 %752 мм0.6 м/с17 %
    18:00Небольшая облачность, возможен дождь с грозой+24°C52 %752 мм3.1 м/с19 %
    21:00Облачно с прояснениями+18°C71 %751 мм1.9 м/с6 %
Мы используем cookies
Соглашаюсь